Time;durP1;ratioP1;P1;durP2;ratioP2;P2;SDS_P1;SDS_P2;PMS_P1;PMS_P2;Temp;Humidity;BMP_temperature;BMP_pressure;BME280_temperature;BME280_humidity;BME280_pressure;Samples;Min_cycle;Max_cycle;Signal;HPM_P1;HPM_P2
2024/04/23 00:00:53;;;;;;;;;;;;;;;;;;5515179;25;19928;-58
2024/04/23 00:03:19;;;;;;;;;;;;;;;;;;5501578;26;19938;-56
2024/04/23 00:05:45;;;;;;;;;;;;;;;;;;5507253;25;19976;-58
2024/04/23 00:08:11;;;;;;;;;;;;;;;;;;5505516;26;19928;-56
2024/04/23 00:10:37;;;;;;;;;;;;;;;;;;5506337;26;19941;-57
2024/04/23 00:13:03;;;;;;;;;;;;;;;;;;5511979;26;19935;-56
2024/04/23 00:15:28;;;;;;;;;;;;;;;;;;5517352;25;20011;-56
2024/04/23 00:17:54;;;;;;;;;;;;;;;;;;5500525;26;19935;-56
2024/04/23 00:20:20;;;;;;;;;;;;;;;;;;5515475;26;19999;-56
2024/04/23 00:22:46;;;;;;;;;;;;;;;;;;5508443;25;19931;-57
2024/04/23 00:25:12;;;;;;;;;;;;;;;;;;5513884;25;19943;-58
2024/04/23 00:27:38;;;;;;;;;;;;;;;;;;5502480;25;19939;-57
2024/04/23 00:30:04;;;;;;;;;;;;;;;;;;5511802;25;19934;-57
2024/04/23 00:32:30;;;;;;;;;;;;;;;;;;5498460;26;20063;-56
2024/04/23 00:34:56;;;;;;;;;;;;;;;;;;5495491;25;19928;-57
2024/04/23 00:37:22;;;;;;;;;;;;;;;;;;5491604;26;19940;-57
2024/04/23 00:39:48;;;;;;;;;;;;;;;;;;5496584;25;19928;-59
2024/04/23 00:42:14;;;;;;;;;;;;;;;;;;5489538;26;19938;-59
2024/04/23 00:44:40;;;;;;;;;;;;;;;;;;5492361;26;20264;-59
2024/04/23 00:47:05;;;;;;;;;;;;;;;;;;5508723;25;19999;-60
2024/04/23 00:49:31;;;;;;;;;;;;;;;;;;5499432;26;19996;-60
2024/04/23 00:51:57;;;;;;;;;;;;;;;;;;5501570;25;19927;-60
2024/04/23 00:54:23;;;;;;;;;;;;;;;;;;5499333;26;19935;-60
2024/04/23 00:56:49;;;;;;;;;;;;;;;;;;5504891;25;20414;-60
2024/04/23 00:59:15;;;;;;;;;;;;;;;;;;5508159;26;19931;-60
2024/04/23 01:01:41;;;;;;;;;;;;;;;;;;5515140;25;19939;-60
2024/04/23 01:04:07;;;;;;;;;;;;;;;;;;5487382;26;19934;-60
2024/04/23 01:06:33;;;;;;;;;;;;;;;;;;5500257;25;19928;-60
2024/04/23 01:08:59;;;;;;;;;;;;;;;;;;5509130;26;19932;-60
2024/04/23 01:11:25;;;;;;;;;;;;;;;;;;5492838;26;19928;-60
2024/04/23 01:13:51;;;;;;;;;;;;;;;;;;5501478;26;20070;-60
2024/04/23 01:16:17;;;;;;;;;;;;;;;;;;5515012;25;20407;-60
2024/04/23 01:18:43;;;;;;;;;;;;;;;;;;5514839;26;20709;-59
2024/04/23 01:21:09;;;;;;;;;;;;;;;;;;5523564;25;19999;-59
2024/04/23 01:23:35;;;;;;;;;;;;;;;;;;5494265;26;19935;-59
2024/04/23 01:26:03;;;;;;;;;;;;;;;;;;5498495;26;19928;-59
2024/04/23 01:28:29;;;;;;;;;;;;;;;;;;5512868;26;19987;-59
2024/04/23 01:30:55;;;;;;;;;;;;;;;;;;5515347;26;19928;-59
2024/04/23 01:33:21;;;;;;;;;;;;;;;;;;5512804;26;19939;-59
2024/04/23 01:35:47;;;;;;;;;;;;;;;;;;5505070;26;19932;-59
2024/04/23 01:38:13;;;;;;;;;;;;;;;;;;5509955;26;19936;-59
2024/04/23 01:40:39;;;;;;;;;;;;;;;;;;5502099;26;19928;-59
2024/04/23 01:43:05;;;;;;;;;;;;;;;;;;5505348;26;19935;-59
2024/04/23 01:45:31;;;;;;;;;;;;;;;;;;5505993;26;19940;-59
2024/04/23 01:47:57;;;;;;;;;;;;;;;;;;5505728;26;19932;-59
2024/04/23 01:50:22;;;;;;;;;;;;;;;;;;5501686;26;20391;-60
2024/04/23 01:52:48;;;;;;;;;;;;;;;;;;5512320;26;19928;-60
2024/04/23 01:55:16;;;;;;;;;;;;;;;;;;5513040;25;19927;-60
2024/04/23 01:57:42;;;;;;;;;;;;;;;;;;5492774;26;20351;-59
2024/04/23 02:00:08;;;;;;;;;;;;;;;;;;5499355;25;19926;-60
2024/04/23 02:02:34;;;;;;;;;;;;;;;;;;5487617;26;19963;-59
2024/04/23 02:05:00;;;;;;;;;;;;;;;;;;5506794;26;20361;-60
2024/04/23 02:07:26;;;;;;;;;;;;;;;;;;5512334;25;20273;-60
2024/04/23 02:09:52;;;;;;;;;;;;;;;;;;5513158;25;20251;-60
2024/04/23 02:12:18;;;;;;;;;;;;;;;;;;5504800;26;20316;-59
2024/04/23 02:14:44;;;;;;;;;;;;;;;;;;5491286;26;20248;-60
2024/04/23 02:17:10;;;;;;;;;;;;;;;;;;5490169;26;19936;-59
2024/04/23 02:19:36;;;;;;;;;;;;;;;;;;5517901;26;19927;-60
2024/04/23 02:22:02;;;;;;;;;;;;;;;;;;5495209;26;20045;-60
2024/04/23 02:24:28;;;;;;;;;;;;;;;;;;5501525;26;20000;-60
2024/04/23 02:26:54;;;;;;;;;;;;;;;;;;5470538;26;19943;-59
2024/04/23 02:29:20;;;;;;;;;;;;;;;;;;5497998;26;19936;-56
2024/04/23 02:31:46;;;;;;;;;;;;;;;;;;5496520;25;19928;-57
2024/04/23 02:34:12;;;;;;;;;;;;;;;;;;5457677;26;19997;-56
2024/04/23 02:36:37;;;;;;;;;;;;;;;;;;5509553;26;19931;-56
2024/04/23 02:39:03;;;;;;;;;;;;;;;;;;5498818;26;19938;-56
2024/04/23 02:41:29;;;;;;;;;;;;;;;;;;5494146;26;19928;-57
2024/04/23 02:43:55;;;;;;;;;;;;;;;;;;5495281;26;19973;-56
2024/04/23 02:46:21;;;;;;;;;;;;;;;;;;5507399;25;19938;-57
2024/04/23 02:48:47;;;;;;;;;;;;;;;;;;5470787;26;20411;-56
2024/04/23 02:51:13;;;;;;;;;;;;;;;;;;5509011;25;19928;-56
2024/04/23 02:53:39;;;;;;;;;;;;;;;;;;5492755;26;19928;-56
2024/04/23 02:56:05;;;;;;;;;;;;;;;;;;5505439;25;20410;-57
2024/04/23 02:58:31;;;;;;;;;;;;;;;;;;5489495;26;19928;-57
2024/04/23 03:00:57;;;;;;;;;;;;;;;;;;5506925;25;19927;-59
2024/04/23 03:03:23;;;;;;;;;;;;;;;;;;5498902;26;19939;-59
2024/04/23 03:05:49;;;;;;;;;;;;;;;;;;5500431;25;20292;-59
2024/04/23 03:08:15;;;;;;;;;;;;;;;;;;5498295;26;20275;-59
2024/04/23 03:10:41;;;;;;;;;;;;;;;;;;5503489;25;19928;-61
2024/04/23 03:13:07;;;;;;;;;;;;;;;;;;5476331;26;20356;-60
2024/04/23 03:15:32;;;;;;;;;;;;;;;;;;5500722;25;19928;-59
2024/04/23 03:17:58;;;;;;;;;;;;;;;;;;5499747;26;19928;-60
2024/04/23 03:20:24;;;;;;;;;;;;;;;;;;5501617;26;19931;-59
2024/04/23 03:22:50;;;;;;;;;;;;;;;;;;5503099;26;20259;-61
2024/04/23 03:25:16;;;;;;;;;;;;;;;;;;5492391;25;22164;-59
2024/04/23 03:27:42;;;;;;;;;;;;;;;;;;5501017;26;19943;-59
2024/04/23 03:30:08;;;;;;;;;;;;;;;;;;5503342;25;19939;-59
2024/04/23 03:32:34;;;;;;;;;;;;;;;;;;5503651;26;19935;-59
2024/04/23 03:35:00;;;;;;;;;;;;;;;;;;5503121;25;19928;-59
2024/04/23 03:37:26;;;;;;;;;;;;;;;;;;5497808;25;19974;-59
2024/04/23 03:39:52;;;;;;;;;;;;;;;;;;5496736;25;19943;-59
2024/04/23 03:42:18;;;;;;;;;;;;;;;;;;5500398;25;19927;-60
2024/04/23 03:44:44;;;;;;;;;;;;;;;;;;5494557;25;19928;-59
2024/04/23 03:47:10;;;;;;;;;;;;;;;;;;5502877;25;19984;-59
2024/04/23 03:49:36;;;;;;;;;;;;;;;;;;5501275;26;19944;-59
2024/04/23 03:52:02;;;;;;;;;;;;;;;;;;5509532;25;19999;-59
2024/04/23 03:54:28;;;;;;;;;;;;;;;;;;5497948;26;20271;-60
2024/04/23 03:56:54;;;;;;;;;;;;;;;;;;5498057;25;19935;-59
2024/04/23 03:59:19;;;;;;;;;;;;;;;;;;5503830;25;19928;-59
2024/04/23 04:01:46;;;;;;;;;;;;;;;;;;5502445;25;19935;-60
2024/04/23 04:06:56;;;;;;;;;;;;;;;;;;5506847;26;20050;-59
2024/04/23 04:09:22;;;;;;;;;;;;;;;;;;5507580;26;20418;-58
2024/04/23 04:11:48;;;;;;;;;;;;;;;;;;5511663;26;20254;-59
2024/04/23 04:14:14;;;;;;;;;;;;;;;;;;5494595;26;19935;-59
2024/04/23 04:16:40;;;;;;;;;;;;;;;;;;5512844;25;19936;-58
2024/04/23 04:19:06;;;;;;;;;;;;;;;;;;5505419;26;19932;-58
2024/04/23 04:21:32;;;;;;;;;;;;;;;;;;5499621;25;19928;-58
2024/04/23 04:23:58;;;;;;;;;;;;;;;;;;5509475;26;19934;-58
2024/04/23 04:26:24;;;;;;;;;;;;;;;;;;5497456;26;19928;-58
2024/04/23 04:28:50;;;;;;;;;;;;;;;;;;5509420;26;19944;-59
2024/04/23 04:31:16;;;;;;;;;;;;;;;;;;5498156;25;19943;-58
2024/04/23 04:33:41;;;;;;;;;;;;;;;;;;5508911;26;19935;-58
2024/04/23 04:36:07;;;;;;;;;;;;;;;;;;5504727;26;20340;-58
2024/04/23 04:38:33;;;;;;;;;;;;;;;;;;5467297;26;20363;-58
2024/04/23 04:40:59;;;;;;;;;;;;;;;;;;5496705;26;19976;-59
2024/04/23 04:43:25;;;;;;;;;;;;;;;;;;5501307;26;19932;-58
2024/04/23 04:45:51;;;;;;;;;;;;;;;;;;5514101;25;19927;-58
2024/04/23 04:48:17;;;;;;;;;;;;;;;;;;5506850;25;19950;-59
2024/04/23 04:50:43;;;;;;;;;;;;;;;;;;5506690;26;20260;-59
2024/04/23 04:53:09;;;;;;;;;;;;;;;;;;5511355;26;19935;-60
2024/04/23 04:55:35;;;;;;;;;;;;;;;;;;5499487;26;20751;-59
2024/04/23 04:58:01;;;;;;;;;;;;;;;;;;5502588;26;19976;-59
2024/04/23 05:00:27;;;;;;;;;;;;;;;;;;5504158;26;19932;-59
2024/04/23 05:02:53;;;;;;;;;;;;;;;;;;5506525;26;19935;-60
2024/04/23 05:05:19;;;;;;;;;;;;;;;;;;5510645;25;19934;-60
2024/04/23 05:07:45;;;;;;;;;;;;;;;;;;5502898;26;20363;-61
2024/04/23 05:10:11;;;;;;;;;;;;;;;;;;5511583;25;20528;-60
2024/04/23 05:12:37;;;;;;;;;;;;;;;;;;5491508;26;19932;-61
2024/04/23 05:15:03;;;;;;;;;;;;;;;;;;5509807;25;19945;-60
2024/04/23 05:17:29;;;;;;;;;;;;;;;;;;5512937;26;19936;-60
2024/04/23 05:19:55;;;;;;;;;;;;;;;;;;5504018;25;19928;-61
2024/04/23 05:22:23;;;;;;;;;;;;;;;;;;5511677;26;19939;-60
2024/04/23 05:24:49;;;;;;;;;;;;;;;;;;5520445;25;20258;-60
2024/04/23 05:27:14;;;;;;;;;;;;;;;;;;5518706;25;19927;-60
2024/04/23 05:29:43;;;;;;;;;;;;;;;;;;5497248;26;20241;-60
2024/04/23 05:34:53;;;;;;;;;;;;;;;;;;5501042;25;19984;-60
2024/04/23 05:37:19;;;;;;;;;;;;;;;;;;5500811;26;19936;-60
2024/04/23 05:39:45;;;;;;;;;;;;;;;;;;5502343;26;20004;-60
2024/04/23 05:42:11;;;;;;;;;;;;;;;;;;5499162;26;20000;-60
2024/04/23 05:44:37;;;;;;;;;;;;;;;;;;5510584;26;19928;-59
2024/04/23 05:47:03;;;;;;;;;;;;;;;;;;5512186;25;20334;-57
2024/04/23 05:49:29;;;;;;;;;;;;;;;;;;5494465;26;19928;-57
2024/04/23 05:51:55;;;;;;;;;;;;;;;;;;5501508;25;19942;-57
2024/04/23 05:54:21;;;;;;;;;;;;;;;;;;5501657;26;19946;-57
2024/04/23 05:56:47;;;;;;;;;;;;;;;;;;5505504;25;19928;-57
2024/04/23 05:59:13;;;;;;;;;;;;;;;;;;5508034;26;19928;-56
2024/04/23 06:01:38;;;;;;;;;;;;;;;;;;5515976;25;19992;-61
2024/04/23 06:04:04;;;;;;;;;;;;;;;;;;5513549;26;19927;-63
2024/04/23 06:06:30;;;;;;;;;;;;;;;;;;5524467;25;19961;-62
2024/04/23 06:08:56;;;;;;;;;;;;;;;;;;5521082;26;19928;-59
2024/04/23 06:11:22;;;;;;;;;;;;;;;;;;5511286;25;19934;-59
2024/04/23 06:13:48;;;;;;;;;;;;;;;;;;5508031;26;19928;-58
2024/04/23 06:16:14;;;;;;;;;;;;;;;;;;5511554;25;19974;-58
2024/04/23 06:18:40;;;;;;;;;;;;;;;;;;5495801;26;19936;-58
2024/04/23 06:21:08;;;;;;;;;;;;;;;;;;5508657;25;19935;-58
2024/04/23 06:23:34;;;;;;;;;;;;;;;;;;5500675;26;19932;-58
2024/04/23 06:26:00;;;;;;;;;;;;;;;;;;5515907;25;19931;-58
2024/04/23 06:28:26;;;;;;;;;;;;;;;;;;5509379;26;19927;-58
2024/04/23 06:30:52;;;;;;;;;;;;;;;;;;5517832;25;19927;-58
2024/04/23 06:33:19;;;;;;;;;;;;;;;;;;5522259;26;20359;-59
2024/04/23 06:35:45;;;;;;;;;;;;;;;;;;5503499;25;19935;-58
2024/04/23 06:38:11;;;;;;;;;;;;;;;;;;5490097;26;19928;-58
2024/04/23 06:40:37;;;;;;;;;;;;;;;;;;5511025;25;20373;-58
2024/04/23 06:43:03;;;;;;;;;;;;;;;;;;5500447;26;19935;-58
2024/04/23 06:45:29;;;;;;;;;;;;;;;;;;5509046;26;20361;-58
2024/04/23 06:47:55;;;;;;;;;;;;;;;;;;5513264;25;19939;-58
2024/04/23 06:50:21;;;;;;;;;;;;;;;;;;5514621;25;20367;-57
2024/04/23 06:52:47;;;;;;;;;;;;;;;;;;5522267;25;20347;-58
2024/04/23 06:55:13;;;;;;;;;;;;;;;;;;5526106;25;19931;-58
2024/04/23 06:57:39;;;;;;;;;;;;;;;;;;5507436;26;19936;-58
2024/04/23 07:00:05;;;;;;;;;;;;;;;;;;5507890;25;19994;-59
2024/04/23 07:02:31;;;;;;;;;;;;;;;;;;5492961;26;19947;-58
2024/04/23 07:04:58;;;;;;;;;;;;;;;;;;5501186;25;20410;-58
2024/04/23 07:07:26;;;;;;;;;;;;;;;;;;5515214;25;19927;-58
2024/04/23 07:09:52;;;;;;;;;;;;;;;;;;5516073;25;20358;-58
2024/04/23 07:12:18;;;;;;;;;;;;;;;;;;5558308;25;20382;-56
2024/04/23 07:14:43;;;;;;;;;;;;;;;;;;5511550;25;19928;-56
2024/04/23 07:17:09;;;;;;;;;;;;;;;;;;5530592;25;19931;-55
2024/04/23 07:19:35;;;;;;;;;;;;;;;;;;5511652;26;19928;-55
2024/04/23 07:22:01;;;;;;;;;;;;;;;;;;5523093;25;19935;-57
2024/04/23 07:24:27;;;;;;;;;;;;;;;;;;5484835;26;19928;-58
2024/04/23 07:26:53;;;;;;;;;;;;;;;;;;5526089;25;19996;-55
2024/04/23 07:29:19;;;;;;;;;;;;;;;;;;5517822;26;19928;-59
2024/04/23 07:31:45;;;;;;;;;;;;;;;;;;5516330;25;19944;-56
2024/04/23 07:34:11;;;;;;;;;;;;;;;;;;5502378;26;19932;-56
2024/04/23 07:36:37;;;;;;;;;;;;;;;;;;5504082;25;19933;-56
2024/04/23 07:39:03;;;;;;;;;;;;;;;;;;5499982;26;19943;-55
2024/04/23 07:41:29;;;;;;;;;;;;;;;;;;5507114;26;20313;-56
2024/04/23 07:43:55;;;;;;;;;;;;;;;;;;5490386;26;19992;-59
2024/04/23 07:46:21;;;;;;;;;;;;;;;;;;5509203;26;19927;-59
2024/04/23 07:48:47;;;;;;;;;;;;;;;;;;5506600;26;19960;-59
2024/04/23 07:51:13;;;;;;;;;;;;;;;;;;5529253;25;20359;-58
2024/04/23 07:53:39;;;;;;;;;;;;;;;;;;5495358;26;19928;-59
2024/04/23 07:56:07;;;;;;;;;;;;;;;;;;5505365;25;20004;-59
2024/04/23 07:58:33;;;;;;;;;;;;;;;;;;5514992;26;19939;-59
2024/04/23 08:00:59;;;;;;;;;;;;;;;;;;5526592;25;19935;-59
2024/04/23 08:03:25;;;;;;;;;;;;;;;;;;5517677;26;19935;-59
2024/04/23 08:05:51;;;;;;;;;;;;;;;;;;5530513;25;19930;-59
2024/04/23 08:08:16;;;;;;;;;;;;;;;;;;5495420;26;19928;-59
2024/04/23 08:10:42;;;;;;;;;;;;;;;;;;5517860;25;20375;-59
2024/04/23 08:13:09;;;;;;;;;;;;;;;;;;5494890;26;19932;-59
2024/04/23 08:15:35;;;;;;;;;;;;;;;;;;5502937;25;20299;-59
2024/04/23 08:18:01;;;;;;;;;;;;;;;;;;5520952;26;20383;-59
2024/04/23 08:20:27;;;;;;;;;;;;;;;;;;5506845;25;19928;-59
2024/04/23 08:22:53;;;;;;;;;;;;;;;;;;5503447;26;19928;-56
2024/04/23 08:25:19;;;;;;;;;;;;;;;;;;5521037;25;19938;-56
2024/04/23 08:27:45;;;;;;;;;;;;;;;;;;5515293;26;20045;-57
2024/04/23 08:30:11;;;;;;;;;;;;;;;;;;5507074;25;19926;-56
2024/04/23 08:32:37;;;;;;;;;;;;;;;;;;5521061;26;19927;-56
2024/04/23 08:35:03;;;;;;;;;;;;;;;;;;5520218;25;19935;-56
2024/04/23 08:37:29;;;;;;;;;;;;;;;;;;5500820;26;19940;-57
2024/04/23 08:39:55;;;;;;;;;;;;;;;;;;5510690;25;19935;-57
2024/04/23 08:42:21;;;;;;;;;;;;;;;;;;5508089;26;19934;-56
2024/04/23 08:44:51;;;;;;;;;;;;;;;;;;5525528;25;20000;-59
2024/04/23 08:47:17;;;;;;;;;;;;;;;;;;5507363;25;19940;-57
2024/04/23 08:49:43;;;;;;;;;;;;;;;;;;5504651;26;20419;-57
2024/04/23 08:52:09;;;;;;;;;;;;;;;;;;5535931;25;19940;-56
2024/04/23 08:54:35;;;;;;;;;;;;;;;;;;5475729;26;19995;-57
2024/04/23 08:57:01;;;;;;;;;;;;;;;;;;5515708;25;20309;-57
2024/04/23 08:59:26;;;;;;;;;;;;;;;;;;5515405;26;19928;-56
2024/04/23 09:01:52;;;;;;;;;;;;;;;;;;5523056;26;19939;-56
2024/04/23 09:04:18;;;;;;;;;;;;;;;;;;5522114;25;19934;-58
2024/04/23 09:06:44;;;;;;;;;;;;;;;;;;5554922;25;19927;-58
2024/04/23 09:09:11;;;;;;;;;;;;;;;;;;5561688;25;19961;-57
2024/04/23 09:11:37;;;;;;;;;;;;;;;;;;5527336;25;19935;-57
2024/04/23 09:14:03;;;;;;;;;;;;;;;;;;5504718;26;19935;-56
2024/04/23 09:16:29;;;;;;;;;;;;;;;;;;5510814;26;19931;-58
2024/04/23 09:18:55;;;;;;;;;;;;;;;;;;5509034;26;19996;-56
2024/04/23 09:21:21;;;;;;;;;;;;;;;;;;5512332;25;19935;-57
2024/04/23 09:23:47;;;;;;;;;;;;;;;;;;5523635;26;19928;-56
2024/04/23 09:26:13;;;;;;;;;;;;;;;;;;5521415;25;19938;-56
2024/04/23 09:28:39;;;;;;;;;;;;;;;;;;5523532;26;20355;-57
2024/04/23 09:31:05;;;;;;;;;;;;;;;;;;5525505;25;20000;-56
2024/04/23 09:33:32;;;;;;;;;;;;;;;;;;5521497;26;20685;-60
2024/04/23 09:35:58;;;;;;;;;;;;;;;;;;5542148;25;20031;-60
2024/04/23 09:38:23;;;;;;;;;;;;;;;;;;5532719;25;19935;-60
2024/04/23 09:40:49;;;;;;;;;;;;;;;;;;5516392;25;20362;-60
2024/04/23 09:43:15;;;;;;;;;;;;;;;;;;5485831;26;20470;-60
2024/04/23 09:45:41;;;;;;;;;;;;;;;;;;5516936;25;19927;-60
2024/04/23 09:48:07;;;;;;;;;;;;;;;;;;5532810;25;19935;-60
2024/04/23 09:50:34;;;;;;;;;;;;;;;;;;5511182;25;19934;-61
2024/04/23 09:53:01;;;;;;;;;;;;;;;;;;5509748;26;19931;-61
2024/04/23 09:55:27;;;;;;;;;;;;;;;;;;5518410;26;20372;-62
2024/04/23 09:57:53;;;;;;;;;;;;;;;;;;5523055;26;19935;-61
2024/04/23 10:00:19;;;;;;;;;;;;;;;;;;5528453;25;19931;-62
2024/04/23 10:02:45;;;;;;;;;;;;;;;;;;5558135;25;19927;-61
2024/04/23 10:05:13;;;;;;;;;;;;;;;;;;5507783;25;19934;-57
2024/04/23 10:07:39;;;;;;;;;;;;;;;;;;5560731;25;19970;-57
2024/04/23 10:10:05;;;;;;;;;;;;;;;;;;5552770;25;20368;-58
2024/04/23 10:12:30;;;;;;;;;;;;;;;;;;5502827;26;20368;-56
2024/04/23 10:14:56;;;;;;;;;;;;;;;;;;5457188;26;19944;-57
2024/04/23 10:17:22;;;;;;;;;;;;;;;;;;5522744;26;19927;-57
2024/04/23 10:19:48;;;;;;;;;;;;;;;;;;5503614;25;19936;-58
2024/04/23 10:22:14;;;;;;;;;;;;;;;;;;5528932;25;19934;-57
2024/04/23 10:24:41;;;;;;;;;;;;;;;;;;5523155;26;20004;-58
2024/04/23 10:27:07;;;;;;;;;;;;;;;;;;5508259;25;20000;-57
2024/04/23 10:29:33;;;;;;;;;;;;;;;;;;5486663;26;19940;-60
2024/04/23 10:31:59;;;;;;;;;;;;;;;;;;5507562;25;19939;-57
2024/04/23 10:34:25;;;;;;;;;;;;;;;;;;5519894;26;19928;-57
2024/04/23 10:36:51;;;;;;;;;;;;;;;;;;5526376;25;19942;-57
2024/04/23 10:39:21;;;;;;;;;;;;;;;;;;5522590;26;19934;-57
2024/04/23 10:41:47;;;;;;;;;;;;;;;;;;5520904;25;19935;-57
2024/04/23 10:44:13;;;;;;;;;;;;;;;;;;5523100;26;20352;-57
2024/04/23 10:46:40;;;;;;;;;;;;;;;;;;5525789;25;19931;-57
2024/04/23 10:49:06;;;;;;;;;;;;;;;;;;5519849;26;19935;-57
2024/04/23 10:51:32;;;;;;;;;;;;;;;;;;5518358;25;20260;-59
2024/04/23 10:53:58;;;;;;;;;;;;;;;;;;5507525;26;20359;-57
2024/04/23 10:56:24;;;;;;;;;;;;;;;;;;5514983;25;19931;-58
2024/04/23 10:58:50;;;;;;;;;;;;;;;;;;5517530;26;19928;-58
2024/04/23 11:01:16;;;;;;;;;;;;;;;;;;5522621;25;20370;-58
2024/04/23 11:03:42;;;;;;;;;;;;;;;;;;5505316;26;19996;-57
2024/04/23 11:06:08;;;;;;;;;;;;;;;;;;5514085;25;20422;-58
2024/04/23 11:08:36;;;;;;;;;;;;;;;;;;5520449;26;20624;-57
2024/04/23 11:11:01;;;;;;;;;;;;;;;;;;5522163;25;19935;-58
2024/04/23 11:13:27;;;;;;;;;;;;;;;;;;5505225;26;19927;-59
2024/04/23 11:15:58;;;;;;;;;;;;;;;;;;5497691;25;19927;-58
2024/04/23 11:18:25;;;;;;;;;;;;;;;;;;5487282;26;19928;-57
2024/04/23 11:20:51;;;;;;;;;;;;;;;;;;5493292;25;19943;-59
2024/04/23 11:23:17;;;;;;;;;;;;;;;;;;5491721;25;20355;-59
2024/04/23 11:25:43;;;;;;;;;;;;;;;;;;5517770;25;20366;-59
2024/04/23 11:28:09;;;;;;;;;;;;;;;;;;5512547;26;19946;-60
2024/04/23 11:30:35;;;;;;;;;;;;;;;;;;5532828;25;19927;-58
2024/04/23 11:33:02;;;;;;;;;;;;;;;;;;5546822;25;19928;-59
2024/04/23 11:35:27;;;;;;;;;;;;;;;;;;5519708;25;19936;-61
2024/04/23 11:37:53;;;;;;;;;;;;;;;;;;5506912;26;19934;-59
2024/04/23 11:40:19;;;;;;;;;;;;;;;;;;5515624;25;19936;-61
2024/04/23 11:42:45;;;;;;;;;;;;;;;;;;5492563;26;19928;-60
2024/04/23 11:45:11;;;;;;;;;;;;;;;;;;5508768;25;20387;-58
2024/04/23 11:47:37;;;;;;;;;;;;;;;;;;5491635;26;19940;-58
2024/04/23 11:50:04;;;;;;;;;;;;;;;;;;5501231;25;19934;-62
2024/04/23 11:52:30;;;;;;;;;;;;;;;;;;5500119;26;19936;-60
2024/04/23 11:54:56;;;;;;;;;;;;;;;;;;5498317;25;19996;-60
2024/04/23 11:57:22;;;;;;;;;;;;;;;;;;5498214;25;19976;-60
2024/04/23 11:59:51;;;;;;;;;;;;;;;;;;5504505;25;19931;-60
2024/04/23 12:02:17;;;;;;;;;;;;;;;;;;5500837;26;19935;-61
2024/04/23 12:04:43;;;;;;;;;;;;;;;;;;5504018;25;19935;-62
2024/04/23 12:07:09;;;;;;;;;;;;;;;;;;5491999;25;19944;-62
2024/04/23 12:09:35;;;;;;;;;;;;;;;;;;5484738;26;19936;-62
2024/04/23 12:12:01;;;;;;;;;;;;;;;;;;5496851;25;19935;-62
2024/04/23 12:14:30;;;;;;;;;;;;;;;;;;5497078;26;19947;-62
2024/04/23 12:16:56;;;;;;;;;;;;;;;;;;5509036;26;19972;-62
2024/04/23 12:19:22;;;;;;;;;;;;;;;;;;5518805;26;19927;-62
2024/04/23 12:21:48;;;;;;;;;;;;;;;;;;5547982;25;19935;-62
2024/04/23 12:24:14;;;;;;;;;;;;;;;;;;5523528;26;19943;-62
2024/04/23 12:26:40;;;;;;;;;;;;;;;;;;5471419;26;19938;-62
2024/04/23 12:29:06;;;;;;;;;;;;;;;;;;5518788;26;19931;-63
2024/04/23 12:31:32;;;;;;;;;;;;;;;;;;5547327;25;19927;-62
2024/04/23 12:33:59;;;;;;;;;;;;;;;;;;5521598;26;20318;-62
2024/04/23 12:36:25;;;;;;;;;;;;;;;;;;5499034;25;19932;-62
2024/04/23 12:38:50;;;;;;;;;;;;;;;;;;5511569;26;19934;-62
2024/04/23 12:41:17;;;;;;;;;;;;;;;;;;5522445;25;19927;-61
2024/04/23 12:43:43;;;;;;;;;;;;;;;;;;5511357;26;19996;-58
2024/04/23 12:46:09;;;;;;;;;;;;;;;;;;5521049;26;20371;-59
2024/04/23 12:48:35;;;;;;;;;;;;;;;;;;5502656;26;19939;-58
2024/04/23 12:51:01;;;;;;;;;;;;;;;;;;5522834;25;19939;-59
2024/04/23 12:53:27;;;;;;;;;;;;;;;;;;5524522;26;19927;-60
2024/04/23 12:55:53;;;;;;;;;;;;;;;;;;5503761;25;19937;-59
2024/04/23 12:58:19;;;;;;;;;;;;;;;;;;5494160;26;20375;-59
2024/04/23 13:00:45;;;;;;;;;;;;;;;;;;5512497;25;19935;-59
2024/04/23 13:03:12;;;;;;;;;;;;;;;;;;5519926;26;19934;-60
2024/04/23 13:05:39;;;;;;;;;;;;;;;;;;5466504;26;19933;-59
2024/04/23 13:08:04;;;;;;;;;;;;;;;;;;5492809;26;19939;-59
2024/04/23 13:10:30;;;;;;;;;;;;;;;;;;5500779;25;20394;-62
2024/04/23 13:12:56;;;;;;;;;;;;;;;;;;5512713;26;20272;-60
2024/04/23 13:15:22;;;;;;;;;;;;;;;;;;5515908;25;19927;-60
2024/04/23 13:17:49;;;;;;;;;;;;;;;;;;5494064;26;19928;-59
2024/04/23 13:20:15;;;;;;;;;;;;;;;;;;5497016;25;19937;-60
2024/04/23 13:22:40;;;;;;;;;;;;;;;;;;5485987;26;20368;-59
2024/04/23 13:25:09;;;;;;;;;;;;;;;;;;5491402;25;19935;-60
2024/04/23 13:27:35;;;;;;;;;;;;;;;;;;5495999;26;19939;-60
2024/04/23 13:30:01;;;;;;;;;;;;;;;;;;5498997;25;20004;-59
2024/04/23 13:32:27;;;;;;;;;;;;;;;;;;5503068;26;19934;-62
2024/04/23 13:34:53;;;;;;;;;;;;;;;;;;5501140;26;19946;-60
2024/04/23 13:37:19;;;;;;;;;;;;;;;;;;5501868;26;20297;-59
2024/04/23 13:39:44;;;;;;;;;;;;;;;;;;5504769;25;19936;-59
2024/04/23 13:42:11;;;;;;;;;;;;;;;;;;5510479;26;20443;-60
2024/04/23 13:44:36;;;;;;;;;;;;;;;;;;5503445;26;19928;-60
2024/04/23 13:47:04;;;;;;;;;;;;;;;;;;5517614;25;20629;-60
2024/04/23 13:49:29;;;;;;;;;;;;;;;;;;5520714;26;20437;-59
2024/04/23 13:51:55;;;;;;;;;;;;;;;;;;5513562;25;19940;-59
2024/04/23 13:54:21;;;;;;;;;;;;;;;;;;5505910;26;19939;-60
2024/04/23 13:56:47;;;;;;;;;;;;;;;;;;5511544;26;20355;-60
2024/04/23 13:59:15;;;;;;;;;;;;;;;;;;5519769;26;19927;-59
2024/04/23 14:01:41;;;;;;;;;;;;;;;;;;5517529;25;22184;-60
2024/04/23 14:04:07;;;;;;;;;;;;;;;;;;5522429;26;20760;-61
2024/04/23 14:06:33;;;;;;;;;;;;;;;;;;5516995;25;19935;-60
2024/04/23 14:08:59;;;;;;;;;;;;;;;;;;5516285;26;19939;-60
2024/04/23 14:11:25;;;;;;;;;;;;;;;;;;5506778;26;19934;-60
2024/04/23 14:13:50;;;;;;;;;;;;;;;;;;5506938;26;19939;-61
2024/04/23 14:16:16;;;;;;;;;;;;;;;;;;5503943;25;20346;-62
2024/04/23 14:18:42;;;;;;;;;;;;;;;;;;5504453;26;20376;-61
2024/04/23 14:21:08;;;;;;;;;;;;;;;;;;5521373;26;20343;-61
2024/04/23 14:23:34;;;;;;;;;;;;;;;;;;5512831;25;19935;-62
2024/04/23 14:26:00;;;;;;;;;;;;;;;;;;5497777;25;19939;-61
2024/04/23 14:28:29;;;;;;;;;;;;;;;;;;5491871;26;19997;-60
2024/04/23 14:30:55;;;;;;;;;;;;;;;;;;5501549;25;19934;-62
2024/04/23 14:33:21;;;;;;;;;;;;;;;;;;5498457;26;20411;-60
2024/04/23 14:35:47;;;;;;;;;;;;;;;;;;5502032;26;19934;-61
2024/04/23 14:38:15;;;;;;;;;;;;;;;;;;5502276;26;19943;-61
2024/04/23 14:40:41;;;;;;;;;;;;;;;;;;5503725;25;19927;-61
2024/04/23 14:43:07;;;;;;;;;;;;;;;;;;5503221;25;19943;-61
2024/04/23 14:45:34;;;;;;;;;;;;;;;;;;5521407;25;19936;-60
2024/04/23 14:48:00;;;;;;;;;;;;;;;;;;5500416;26;19973;-59
2024/04/23 14:50:27;;;;;;;;;;;;;;;;;;5516899;25;19927;-60
2024/04/23 14:52:53;;;;;;;;;;;;;;;;;;5500742;25;19935;-58
2024/04/23 14:55:18;;;;;;;;;;;;;;;;;;5495327;25;19934;-59
2024/04/23 14:57:45;;;;;;;;;;;;;;;;;;5504979;25;19927;-59
2024/04/23 15:00:11;;;;;;;;;;;;;;;;;;5501095;25;19996;-59
2024/04/23 15:02:37;;;;;;;;;;;;;;;;;;5488932;26;19936;-58
2024/04/23 15:05:03;;;;;;;;;;;;;;;;;;5499359;25;19939;-59
2024/04/23 15:07:31;;;;;;;;;;;;;;;;;;5470002;26;20542;-57
2024/04/23 15:09:57;;;;;;;;;;;;;;;;;;5509965;25;20042;-59
2024/04/23 15:12:24;;;;;;;;;;;;;;;;;;5508066;25;20383;-60
2024/04/23 15:14:50;;;;;;;;;;;;;;;;;;5509432;25;20363;-59
2024/04/23 15:17:16;;;;;;;;;;;;;;;;;;5513425;25;19939;-58
2024/04/23 15:19:42;;;;;;;;;;;;;;;;;;5504152;26;20000;-58
2024/04/23 15:22:07;;;;;;;;;;;;;;;;;;5513780;25;19936;-58
2024/04/23 15:24:38;;;;;;;;;;;;;;;;;;5496012;26;19932;-59
2024/04/23 15:27:04;;;;;;;;;;;;;;;;;;5487254;25;19931;-57
2024/04/23 15:29:30;;;;;;;;;;;;;;;;;;5498864;26;19934;-58
2024/04/23 15:31:55;;;;;;;;;;;;;;;;;;5503628;25;19928;-58
2024/04/23 15:34:21;;;;;;;;;;;;;;;;;;5518501;26;19934;-59
2024/04/23 15:36:47;;;;;;;;;;;;;;;;;;5518442;25;20664;-61
2024/04/23 15:39:13;;;;;;;;;;;;;;;;;;5517578;26;19928;-60
2024/04/23 15:41:39;;;;;;;;;;;;;;;;;;5490809;25;20257;-60
2024/04/23 15:44:06;;;;;;;;;;;;;;;;;;5510758;26;19928;-60
2024/04/23 15:46:32;;;;;;;;;;;;;;;;;;5511657;25;19939;-60
2024/04/23 15:48:58;;;;;;;;;;;;;;;;;;5511446;25;20393;-60
2024/04/23 15:51:24;;;;;;;;;;;;;;;;;;5517617;25;20400;-60
2024/04/23 15:53:49;;;;;;;;;;;;;;;;;;5510522;26;19935;-60
2024/04/23 15:56:15;;;;;;;;;;;;;;;;;;5502326;25;19935;-59
2024/04/23 15:58:41;;;;;;;;;;;;;;;;;;5514762;26;19927;-58
2024/04/23 16:01:07;;;;;;;;;;;;;;;;;;5507627;25;20347;-58
2024/04/23 16:03:33;;;;;;;;;;;;;;;;;;5503718;26;19943;-58
2024/04/23 16:05:59;;;;;;;;;;;;;;;;;;5505561;25;19939;-58
2024/04/23 16:08:25;;;;;;;;;;;;;;;;;;5519276;25;19940;-59
2024/04/23 16:10:51;;;;;;;;;;;;;;;;;;5511220;25;19935;-57
2024/04/23 16:13:17;;;;;;;;;;;;;;;;;;5493143;26;20356;-58
2024/04/23 16:15:43;;;;;;;;;;;;;;;;;;5515609;25;19935;-58
2024/04/23 16:18:09;;;;;;;;;;;;;;;;;;5491298;26;21376;-57
2024/04/23 16:20:35;;;;;;;;;;;;;;;;;;5493533;25;19939;-59
2024/04/23 16:23:01;;;;;;;;;;;;;;;;;;5501313;26;20371;-58
2024/04/23 16:25:27;;;;;;;;;;;;;;;;;;5497133;26;20148;-58
2024/04/23 16:27:53;;;;;;;;;;;;;;;;;;5503002;26;19936;-58
2024/04/23 16:30:19;;;;;;;;;;;;;;;;;;5497327;25;19945;-57
2024/04/23 16:32:44;;;;;;;;;;;;;;;;;;5495601;26;19927;-58
2024/04/23 16:35:11;;;;;;;;;;;;;;;;;;5502449;26;19928;-59
2024/04/23 16:37:37;;;;;;;;;;;;;;;;;;5495065;26;19963;-58
2024/04/23 16:40:03;;;;;;;;;;;;;;;;;;5498011;26;20000;-59
2024/04/23 16:42:29;;;;;;;;;;;;;;;;;;5492353;25;19936;-59